Observation data for Muleshoe on 11/07/2019      Previous  Date       Current Mesonet Observations  Soil Data  Daily Summary Page  Observations in Plain Language
KMUS 070600Z 01007G13KT 12/11 A3018 RMK A01 T01180109  RH  097%=      5-min Rain = 0
KMUS 070605Z 01014G32KT 12/10 A3018 RMK A01 T01160102  RH  094%=      5-min Rain = 0
KMUS 070610Z 03019G28KT 09/06 A302 RMK A01 T00850063  RH  089%=      5-min Rain = 0
KMUS 070615Z 04020G28KT 07/05 A3021 RMK A01 T00700053  RH  091%=      5-min Rain = 0
KMUS 070620Z 04018G27KT 06/05 A3021 RMK A01 T00640048  RH  091%=      5-min Rain = 0
KMUS 070625Z 04017G25KT 06/04 A3021 RMK A01 T00570041  RH  091%=      5-min Rain = 0
KMUS 070630Z 03020G25KT 05/04 A3022 RMK A01 T00520035  RH  090%=      5-min Rain = 0
KMUS 070635Z 03018G24KT 05/03 A3022 RMK A01 T00490033  RH  091%=      5-min Rain = 0
KMUS 070640Z 03017G23KT 05/03 A3023 RMK A01 T00470031  RH  091%=      5-min Rain = 0
KMUS 070645Z 02019G25KT 05/03 A3025 RMK A01 T00450030  RH  091%=      5-min Rain = 0
KMUS 070650Z 02020G29KT 04/02 A3026 RMK A01 T00410024  RH  091%=      5-min Rain = 0
KMUS 070655Z 01018G26KT 04/02 A3027 RMK A01 T00390023  RH  091%=      5-min Rain = 0
KMUS 070700Z 01018G23KT 04/02 A3028 RMK A01 T00380023  RH  091%=      5-min Rain = 0
KMUS 070705Z 00013KT 04/02 A3029 RMK A01 T00380024  RH  092%=      5-min Rain = 0
KMUS 070710Z 00016KT 04/02 A303 RMK A01 T00380024  RH  092%=      5-min Rain = 0
KMUS 070715Z 01017G24KT 04/02 A303 RMK A01 T00350022  RH  092%=      5-min Rain = 0
KMUS 070720Z 00016G23KT 03/02 A3029 RMK A01 T00330021  RH  093%=      5-min Rain = 0
KMUS 070725Z 01017G23KT 03/02 A3029 RMK A01 T00300019  RH  094%=      5-min Rain = 0
KMUS 070730Z 01017G22KT 03/02 A3028 RMK A01 T00280017  RH  094%=      5-min Rain = 0
KMUS 070735Z 02018G23KT 03/02 A3028 RMK A01 T00250016  RH  095%=      5-min Rain = 0
KMUS 070740Z 02018G25KT 02/02 A3029 RMK A01 T00230015  RH  095%=      5-min Rain = 0.01
KMUS 070745Z 01017KT 02/02 A3029 RMK A01 T00230015  RH  096%=      5-min Rain = 0
KMUS 070750Z 01021G26KT 02/01 A3029 RMK A01 T00200012  RH  096%=      5-min Rain = 0
KMUS 070755Z 02018G25KT 02/01 A3029 RMK A01 T00180010  RH  096%=      5-min Rain = 0
KMUS 070800Z 02019G28KT 02/01 A3029 RMK A01 T00150008  RH  096%=      5-min Rain = 0.01
KMUS 070805Z 02019G25KT 01/01 A3029 RMK A01 T00140007  RH  097%=      5-min Rain = 0
KMUS 070810Z 02018G26KT 01/01 A3029 RMK A01 T00140007  RH  097%=      5-min Rain = 0
KMUS 070815Z 02018G27KT 01/01 A3029 RMK A01 T00120006  RH  097%=      5-min Rain = 0
KMUS 070820Z 01015G21KT 01/01 A3031 RMK A01 T00120007  RH  098%=      5-min Rain = 0
KMUS 070825Z 01016G24KT 01/01 A3033 RMK A01 T00120007  RH  098%=      5-min Rain = 0
KMUS 070830Z 01017KT 01/01 A3033 RMK A01 T00110007  RH  098%=      5-min Rain = 0
KMUS 070835Z 01019G25KT 01/01 A3033 RMK A01 T00110006  RH  098%=      5-min Rain = 0.01
KMUS 070840Z 02017G27KT 01/01 A3033 RMK A01 T00100005  RH  098%=      5-min Rain = 0
KMUS 070845Z 01017G22KT 01/01 A3033 RMK A01 T00100005  RH  098%=      5-min Rain = 0
KMUS 070850Z 02020G26KT 01/00 A3032 RMK A01 T00080003  RH  098%=      5-min Rain = 0
KMUS 070855Z 02019G27KT 01/00 A3032 RMK A01 T00070003  RH  099%=      5-min Rain = 0
KMUS 070900Z 02019G27KT 01/00 A3032 RMK A01 T00060002  RH  099%=      5-min Rain = 0
KMUS 070905Z 02018G27KT 01/00 A3031 RMK A01 T00050001  RH  099%=      5-min Rain = 0
KMUS 070910Z 02020G29KT 00/00 A303 RMK A01 T00040001  RH  099%=      5-min Rain = 0
KMUS 070915Z 03019G26KT 00/00 A3029 RMK A01 T00030000  RH  099%=      5-min Rain = 0
KMUS 070920Z 03018G26KT 00/00 A3028 RMK A01 T00030000  RH  099%=      5-min Rain = 0
KMUS 070925Z 02020G27KT 00/M00 A3029 RMK A01 T00021001  RH  099%=      5-min Rain = 0
KMUS 070930Z 00018G24KT 00/M00 A3032 RMK A01 T00021001  RH  099%=      5-min Rain = 0
KMUS 070935Z 00020G26KT 00/M00 A3032 RMK A01 T00021001  RH  099%=      5-min Rain = 0
KMUS 070940Z 01021G29KT 00/M00 A3032 RMK A01 T00011002  RH  099%=      5-min Rain = 0
KMUS 070945Z 01019G27KT 00/00 A3032 RMK A01 T00-000-3  RH  099%=      5-min Rain = 0
KMUS 070950Z 02021G33KT M00/M00 A3032 RMK A01 T10011004  RH  099%=      5-min Rain = 0
KMUS 070955Z 02021G28KT M00/M01 A3032 RMK A01 T10021005  RH  099%=      5-min Rain = 0
KMUS 071000Z 02019G27KT M00/M01 A3032 RMK A01 T10021005  RH  099%=      5-min Rain = 0
KMUS 071005Z 02018G26KT M00/M01 A3032 RMK A01 T10021005  RH  099%=      5-min Rain = 0
KMUS 071010Z 01016G23KT M00/M00 A3031 RMK A01 T10011004  RH  099%=      5-min Rain = 0
KMUS 071015Z 01018G28KT M00/M00 A3031 RMK A01 T10011004  RH  099%=      5-min Rain = 0
KMUS 071020Z 01022G29KT M00/M01 A3031 RMK A01 T10031006  RH  099%=      5-min Rain = 0
KMUS 071025Z 01019G26KT M00/M01 A3032 RMK A01 T10031007  RH  099%=      5-min Rain = 0
KMUS 071030Z 01021G29KT M00/M01 A3032 RMK A01 T10041008  RH  099%=      5-min Rain = 0
KMUS 071035Z 01024G30KT M00/M01 A3032 RMK A01 T10041008  RH  098%=      5-min Rain = 0
KMUS 071040Z 02018G28KT M00/M01 A3032 RMK A01 T10041009  RH  098%=      5-min Rain = 0
KMUS 071045Z 02017G25KT M00/M01 A3033 RMK A01 T10041009  RH  098%=      5-min Rain = 0
KMUS 071050Z 02019G26KT M00/M01 A3033 RMK A01 T10041009  RH  098%=      5-min Rain = 0
KMUS 071055Z 01017G26KT M00/M01 A3033 RMK A01 T10041008  RH  098%=      5-min Rain = 0
KMUS 071100Z 01019KT M00/M01 A3033 RMK A01 T10041008  RH  098%=      5-min Rain = 0
KMUS 071105Z 01018G25KT M00/M01 A3033 RMK A01 T10041008  RH  098%=      5-min Rain = 0
KMUS 071110Z 01017G24KT M01/M01 A3033 RMK A01 T10051009  RH  098%=      5-min Rain = 0
KMUS 071115Z 01020G26KT M01/M01 A3034 RMK A01 T10061010  RH  098%=      5-min Rain = 0
KMUS 071120Z 01021G27KT M01/M01 A3034 RMK A01 T10071012  RH  097%=      5-min Rain = 0
KMUS 071125Z 01017G25KT M01/M01 A3035 RMK A01 T10061011  RH  097%=      5-min Rain = 0
KMUS 071130Z 01018G25KT M01/M01 A3035 RMK A01 T10061011  RH  097%=      5-min Rain = 0
KMUS 071135Z 02020G30KT M01/M01 A3035 RMK A01 T10071012  RH  097%=      5-min Rain = 0
KMUS 071140Z 01021G27KT M01/M01 A3035 RMK A01 T10071012  RH  097%=      5-min Rain = 0
KMUS 071145Z 02020G29KT M01/M01 A3035 RMK A01 T10061012  RH  097%=      5-min Rain = 0
KMUS 071150Z 02019G25KT M01/M01 A3035 RMK A01 T10071013  RH  097%=      5-min Rain = 0
KMUS 071155Z 01018G25KT M01/M01 A3035 RMK A01 T10071013  RH  097%=      5-min Rain = 0
KMUS 071200Z 01018G25KT M01/M01 A3035 RMK A01 T10071013  RH  097%=      5-min Rain = 0
KMUS 071205Z 01020G28KT M01/M02 A3036 RMK A01 T10081015  RH  096%=      5-min Rain = 0
KMUS 071210Z 01018G29KT M01/M02 A3036 RMK A01 T10091015  RH  096%=      5-min Rain = 0
KMUS 071215Z 01020G26KT M01/M02 A3037 RMK A01 T10091017  RH  096%=      5-min Rain = 0
KMUS 071220Z 02020G28KT M01/M02 A3036 RMK A01 T10091017  RH  096%=      5-min Rain = 0
KMUS 071225Z 02016G26KT M01/M02 A3037 RMK A01 T10091017  RH  096%=      5-min Rain = 0
KMUS 071230Z 02016G26KT M01/M02 A3037 RMK A01 T10091016  RH  096%=      5-min Rain = 0
KMUS 071235Z 02020G26KT M01/M02 A3038 RMK A01 T10091017  RH  095%=      5-min Rain = 0
KMUS 071240Z 01018G24KT M01/M02 A3039 RMK A01 T10091017  RH  095%=      5-min Rain = 0
KMUS 071245Z 02018G24KT M01/M02 A3039 RMK A01 T10101018  RH  095%=      5-min Rain = 0
KMUS 071250Z 02015G22KT M01/M02 A3039 RMK A01 T10101019  RH  095%=      5-min Rain = 0.01
KMUS 071255Z 01014G22KT M01/M02 A3039 RMK A01 T10101018  RH  095%=      5-min Rain = 0
KMUS 071300Z 02015G23KT M01/M02 A304 RMK A01 T10101018  RH  096%=      5-min Rain = 0
KMUS 071305Z 01018G25KT M01/M02 A304 RMK A01 T10101018  RH  095%=      5-min Rain = 0
KMUS 071310Z 01016G24KT M01/M02 A304 RMK A01 T10101018  RH  095%=      5-min Rain = 0
KMUS 071315Z 01018G23KT M01/M02 A3039 RMK A01 T10121019  RH  096%=      5-min Rain = 0
KMUS 071320Z 01015G24KT M01/M02 A304 RMK A01 T10121018  RH  096%=      5-min Rain = 0
KMUS 071325Z 01016G22KT M01/M02 A304 RMK A01 T10121018  RH  096%=      5-min Rain = 0
KMUS 071330Z 02014G19KT M01/M02 A304 RMK A01 T10121018  RH  096%=      5-min Rain = 0
KMUS 071335Z 02016G23KT M01/M02 A304 RMK A01 T10121019  RH  096%=      5-min Rain = 0
KMUS 071340Z 02016G22KT M01/M02 A304 RMK A01 T10121018  RH  096%=      5-min Rain = 0
KMUS 071345Z 02016G22KT M01/M02 A304 RMK A01 T10121019  RH  096%=      5-min Rain = 0
KMUS 071350Z 02017G26KT M01/M02 A3041 RMK A01 T10131019  RH  096%=      5-min Rain = 0
KMUS 071355Z 02019G25KT M01/M02 A3042 RMK A01 T10131019  RH  096%=      5-min Rain = 0
KMUS 071400Z 02016G23KT M01/M02 A3042 RMK A01 T10121019  RH  096%=      5-min Rain = 0
KMUS 071405Z 02016G23KT M01/M02 A3042 RMK A01 T10121019  RH  096%=      5-min Rain = 0
KMUS 071410Z 01014G19KT M01/M02 A3043 RMK A01 T10111019  RH  096%=      5-min Rain = 0
KMUS 071415Z 02013G18KT M01/M02 A3044 RMK A01 T10111019  RH  095%=      5-min Rain = 0
KMUS 071420Z 01011G16KT M01/M02 A3044 RMK A01 T10111018  RH  096%=      5-min Rain = 0
KMUS 071425Z 02013G19KT M01/M02 A3044 RMK A01 T10111018  RH  096%=      5-min Rain = 0
KMUS 071430Z 02013G18KT M01/M02 A3044 RMK A01 T10111018  RH  096%=      5-min Rain = 0
KMUS 071435Z 01011KT M01/M02 A3044 RMK A01 T10111017  RH  096%=      5-min Rain = 0
KMUS 071440Z 02011G17KT M01/M02 A3044 RMK A01 T10101016  RH  096%=      5-min Rain = 0
KMUS 071445Z 01014KT M01/M02 A3045 RMK A01 T10101016  RH  096%=      5-min Rain = 0
KMUS 071450Z 02014G21KT M01/M02 A3044 RMK A01 T10101016  RH  096%=      5-min Rain = 0
KMUS 071455Z 03015G20KT M01/M02 A3044 RMK A01 T10111017  RH  096%=      5-min Rain = 0
KMUS 071500Z 03013G19KT M01/M02 A3044 RMK A01 T10111017  RH  096%=      5-min Rain = 0
KMUS 071505Z 03013G19KT M01/M02 A3045 RMK A01 T10111018  RH  096%=      5-min Rain = 0
KMUS 071510Z 02014G20KT M01/M02 A3045 RMK A01 T10111017  RH  097%=      5-min Rain = 0
KMUS 071515Z 02013G18KT M01/M02 A3045 RMK A01 T10101016  RH  097%=      5-min Rain = 0
KMUS 071520Z 02014G19KT M01/M02 A3046 RMK A01 T10101016  RH  097%=      5-min Rain = 0
KMUS 071525Z 03014G21KT M01/M02 A3046 RMK A01 T10101016  RH  097%=      5-min Rain = 0
KMUS 071530Z 02014G20KT M01/M02 A3046 RMK A01 T10101016  RH  097%=      5-min Rain = 0
KMUS 071535Z 02012G17KT M01/M02 A3046 RMK A01 T10091015  RH  097%=      5-min Rain = 0
KMUS 071540Z 02011G16KT M01/M01 A3046 RMK A01 T10091014  RH  097%=      5-min Rain = 0
KMUS 071545Z 02012KT M01/M01 A3047 RMK A01 T10091014  RH  097%=      5-min Rain = 0
KMUS 071550Z 02011KT M01/M01 A3047 RMK A01 T10081014  RH  097%=      5-min Rain = 0
KMUS 071555Z 01014G20KT M01/M02 A3047 RMK A01 T10091015  RH  097%=      5-min Rain = 0
KMUS 071600Z 01016KT M01/M02 A3047 RMK A01 T10101016  RH  097%=      5-min Rain = 0
KMUS 071605Z 03012G19KT M01/M02 A3046 RMK A01 T10101015  RH  097%=      5-min Rain = 0
KMUS 071610Z 03015G21KT M01/M02 A3046 RMK A01 T10101015  RH  097%=      5-min Rain = 0
KMUS 071615Z 03015G20KT M01/M02 A3046 RMK A01 T10101015  RH  097%=      5-min Rain = 0
KMUS 071620Z 03013G18KT M01/M01 A3046 RMK A01 T10091014  RH  097%=      5-min Rain = 0
KMUS 071625Z 03013KT M01/M01 A3046 RMK A01 T10091014  RH  097%=      5-min Rain = 0
KMUS 071630Z 02013G18KT M01/M01 A3046 RMK A01 T10081013  RH  097%=      5-min Rain = 0
KMUS 071635Z 01015G21KT M01/M01 A3047 RMK A01 T10091014  RH  097%=      5-min Rain = 0
KMUS 071640Z 02016G21KT M01/M02 A3047 RMK A01 T10111016  RH  097%=      5-min Rain = 0
KMUS 071645Z 02014G19KT M01/M02 A3048 RMK A01 T10101015  RH  098%=      5-min Rain = 0
KMUS 071650Z 02013G18KT M01/M01 A3047 RMK A01 T10101014  RH  098%=      5-min Rain = 0
KMUS 071655Z 03015G21KT M01/M01 A3047 RMK A01 T10091013  RH  098%=      5-min Rain = 0
KMUS 071700Z 03015KT M01/M01 A3047 RMK A01 T10091013  RH  098%=      5-min Rain = 0
KMUS 071705Z 03013KT M01/M01 A3047 RMK A01 T10091013  RH  098%=      5-min Rain = 0
KMUS 071710Z 02013G18KT M01/M01 A3047 RMK A01 T10091013  RH  098%=      5-min Rain = 0
KMUS 071715Z 04014G19KT M01/M01 A3047 RMK A01 T10091013  RH  098%=      5-min Rain = 0
KMUS 071720Z 03013G18KT M01/M01 A3047 RMK A01 T10091013  RH  098%=      5-min Rain = 0
KMUS 071725Z 02013G18KT M01/M01 A3047 RMK A01 T10091013  RH  098%=      5-min Rain = 0
KMUS 071730Z 02011KT M01/M01 A3048 RMK A01 T10091013  RH  098%=      5-min Rain = 0
KMUS 071735Z 01012G17KT M01/M01 A3049 RMK A01 T10091014  RH  098%=      5-min Rain = 0
KMUS 071740Z 01012KT M01/M01 A3049 RMK A01 T10091013  RH  098%=      5-min Rain = 0
KMUS 071745Z 01012KT M01/M01 A3049 RMK A01 T10101014  RH  098%=      5-min Rain = 0
KMUS 071750Z 01012KT M01/M01 A3048 RMK A01 T10091013  RH  098%=      5-min Rain = 0
KMUS 071755Z 02012KT M01/M01 A3048 RMK A01 T10081012  RH  098%=      5-min Rain = 0
KMUS 071800Z 02012KT M01/M01 A3049 RMK A01 T10091013  RH  098%=      5-min Rain = 0
KMUS 071805Z 02012KT M01/M01 A3048 RMK A01 T10091014  RH  098%=      5-min Rain = 0
KMUS 071810Z 01012KT M01/M01 A3048 RMK A01 T10101014  RH  098%=      5-min Rain = 0
KMUS 071815Z 02014KT M01/M02 A3047 RMK A01 T10111015  RH  098%=      5-min Rain = 0
KMUS 071820Z 02014KT M01/M02 A3047 RMK A01 T10121015  RH  098%=      5-min Rain = 0
KMUS 071825Z 01013KT M01/M02 A3047 RMK A01 T10111015  RH  098%=      5-min Rain = 0
KMUS 071830Z 01012KT M01/M02 A3047 RMK A01 T10111015  RH  098%=      5-min Rain = 0
KMUS 071835Z 01013KT M01/M01 A3047 RMK A01 T10101014  RH  098%=      5-min Rain = 0
KMUS 071840Z 00011G16KT M01/M01 A3047 RMK A01 T10091013  RH  098%=      5-min Rain = 0
KMUS 071845Z 01011KT M01/M01 A3047 RMK A01 T10091014  RH  098%=      5-min Rain = 0
KMUS 071850Z 01012KT M01/M01 A3047 RMK A01 T10091014  RH  098%=      5-min Rain = 0
KMUS 071855Z 01012G18KT M01/M01 A3046 RMK A01 T10101014  RH  098%=      5-min Rain = 0
KMUS 071900Z 01014KT M01/M02 A3045 RMK A01 T10101015  RH  098%=      5-min Rain = 0
KMUS 071905Z 02012G17KT M01/M01 A3045 RMK A01 T10101014  RH  098%=      5-min Rain = 0
KMUS 071910Z 02013G18KT M01/M01 A3045 RMK A01 T10101014  RH  098%=      5-min Rain = 0
KMUS 071915Z 02013G18KT M01/M01 A3044 RMK A01 T10091013  RH  098%=      5-min Rain = 0
KMUS 071920Z 03012KT M01/M01 A3044 RMK A01 T10081011  RH  098%=      5-min Rain = 0
KMUS 071925Z 02012KT M01/M01 A3045 RMK A01 T10081012  RH  098%=      5-min Rain = 0
KMUS 071930Z 01012KT M01/M01 A3045 RMK A01 T10091013  RH  098%=      5-min Rain = 0
KMUS 071935Z 00011KT M01/M01 A3045 RMK A01 T10081012  RH  099%=      5-min Rain = 0
KMUS 071940Z 01011KT M01/M01 A3045 RMK A01 T10081012  RH  098%=      5-min Rain = 0
KMUS 071945Z 35011KT M01/M01 A3045 RMK A01 T10091012  RH  098%=      5-min Rain = 0
KMUS 071950Z 01011KT M01/M01 A3045 RMK A01 T10091012  RH  098%=      5-min Rain = 0
KMUS 071955Z 01010KT M01/M01 A3044 RMK A01 T10091013  RH  099%=      5-min Rain = 0
KMUS 072000Z 36011KT M01/M01 A3044 RMK A01 T10101013  RH  099%=      5-min Rain = 0
KMUS 072005Z 01013KT M01/M01 A3044 RMK A01 T10101013  RH  099%=      5-min Rain = 0
KMUS 072010Z 00012G18KT M01/M01 A3043 RMK A01 T10101013  RH  099%=      5-min Rain = 0
KMUS 072015Z 00012G17KT M01/M01 A3043 RMK A01 T10101012  RH  099%=      5-min Rain = 0
KMUS 072020Z 01012G17KT M01/M01 A3043 RMK A01 T10091012  RH  099%=      5-min Rain = 0
KMUS 072025Z 02013G18KT M01/M01 A3043 RMK A01 T10101012  RH  099%=      5-min Rain = 0
KMUS 072030Z 02011G16KT M01/M01 A3043 RMK A01 T10091012  RH  099%=      5-min Rain = 0
KMUS 072035Z 01011KT M01/M01 A3044 RMK A01 T10091012  RH  099%=      5-min Rain = 0
KMUS 072040Z 02011KT M01/M01 A3043 RMK A01 T10091011  RH  099%=      5-min Rain = 0
KMUS 072045Z 02011KT M01/M01 A3043 RMK A01 T10091011  RH  099%=      5-min Rain = 0
KMUS 072050Z 02010G15KT M01/M01 A3043 RMK A01 T10081011  RH  099%=      5-min Rain = 0
KMUS 072055Z 02011KT M01/M01 A3043 RMK A01 T10091011  RH  099%=      5-min Rain = 0
KMUS 072100Z 02008KT M01/M01 A3044 RMK A01 T10091011  RH  099%=      5-min Rain = 0
KMUS 072105Z 02007KT M01/M01 A3044 RMK A01 T10071009  RH  099%=      5-min Rain = 0
KMUS 072110Z 03010KT M01/M01 A3044 RMK A01 T10061009  RH  099%=      5-min Rain = 0
KMUS 072115Z 02010KT M01/M01 A3044 RMK A01 T10071010  RH  099%=      5-min Rain = 0
KMUS 072120Z 01009KT M01/M01 A3044 RMK A01 T10071010  RH  099%=      5-min Rain = 0
KMUS 072125Z 35009KT M01/M01 A3044 RMK A01 T10061009  RH  099%=      5-min Rain = 0
KMUS 072130Z 00009KT M01/M01 A3044 RMK A01 T10061009  RH  099%=      5-min Rain = 0
KMUS 072135Z 00009KT M01/M01 A3044 RMK A01 T10071010  RH  098%=      5-min Rain = 0
KMUS 072140Z 02008KT M01/M01 A3044 RMK A01 T10061009  RH  099%=      5-min Rain = 0
KMUS 072145Z 01008KT M01/M01 A3044 RMK A01 T10051009  RH  098%=      5-min Rain = 0
KMUS 072150Z 01010KT M01/M01 A3044 RMK A01 T10061010  RH  098%=      5-min Rain = 0
KMUS 072155Z 01009KT M01/M01 A3044 RMK A01 T10061009  RH  098%=      5-min Rain = 0
KMUS 072200Z 01009KT M01/M01 A3044 RMK A01 T10051009  RH  098%=      5-min Rain = 0
KMUS 072205Z 01008KT M01/M01 A3044 RMK A01 T10061009  RH  098%=      5-min Rain = 0
KMUS 072210Z 01011KT M01/M01 A3043 RMK A01 T10051008  RH  098%=      5-min Rain = 0
KMUS 072215Z 02010KT M01/M01 A3043 RMK A01 T10051008  RH  098%=      5-min Rain = 0
KMUS 072220Z 03010KT M00/M01 A3042 RMK A01 T10041008  RH  099%=      5-min Rain = 0
KMUS 072225Z 03010KT M00/M01 A3042 RMK A01 T10041007  RH  099%=      5-min Rain = 0
KMUS 072230Z 02008KT M00/M01 A3043 RMK A01 T10041007  RH  099%=      5-min Rain = 0
KMUS 072235Z 02008KT M00/M01 A3043 RMK A01 T10041007  RH  099%=      5-min Rain = 0
KMUS 072240Z 01009KT M00/M01 A3043 RMK A01 T10041007  RH  099%=      5-min Rain = 0
KMUS 072245Z 00009KT M00/M01 A3043 RMK A01 T10041007  RH  099%=      5-min Rain = 0
KMUS 072250Z 01007KT M01/M01 A3044 RMK A01 T10051008  RH  099%=      5-min Rain = 0
KMUS 072255Z 36006KT M00/M01 A3044 RMK A01 T10041006  RH  099%=      5-min Rain = 0
KMUS 072300Z 35007KT M00/M01 A3044 RMK A01 T10041007  RH  099%=      5-min Rain = 0
KMUS 072305Z 36006KT M00/M01 A3044 RMK A01 T10041007  RH  099%=      5-min Rain = 0
KMUS 072310Z 00006KT M00/M01 A3044 RMK A01 T10031006  RH  099%=      5-min Rain = 0
KMUS 072315Z 01006KT M00/M01 A3044 RMK A01 T10041007  RH  099%=      5-min Rain = 0
KMUS 072320Z 02005KT M00/M01 A3045 RMK A01 T10041006  RH  099%=      5-min Rain = 0
KMUS 072325Z 01006KT M00/M01 A3044 RMK A01 T10031005  RH  099%=      5-min Rain = 0
KMUS 072330Z 01006KT M00/M01 A3044 RMK A01 T10031005  RH  099%=      5-min Rain = 0
KMUS 072335Z 01007KT M00/M01 A3044 RMK A01 T10021005  RH  099%=      5-min Rain = 0
KMUS 072340Z 01007KT M00/M00 A3043 RMK A01 T10021004  RH  099%=      5-min Rain = 0
KMUS 072345Z 01007KT M00/M00 A3043 RMK A01 T10021004  RH  099%=      5-min Rain = 0
KMUS 072350Z 01007KT M00/M00 A3043 RMK A01 T10021004  RH  099%=      5-min Rain = 0
KMUS 072355Z 01006KT M00/M00 A3043 RMK A01 T10021004  RH  100%=      5-min Rain = 0
KMUS 080000Z 02004KT M00/M00 A3044 RMK A01 T10011003  RH  100%=      5-min Rain = 0
KMUS 080005Z 02004KT M00/M00 A3044 RMK A01 T10011003  RH  100%=      5-min Rain = 0
KMUS 080010Z 01004KT 00/00 A3044 RMK A01 T00-000-2  RH  100%=      5-min Rain = 0
KMUS 080015Z 36007KT 00/00 A3044 RMK A01 T000000-2  RH  100%=      5-min Rain = 0
KMUS 080020Z 01007KT 00/00 A3043 RMK A01 T000000-2  RH  100%=      5-min Rain = 0
KMUS 080025Z 01006KT 00/00 A3044 RMK A01 T000000-1  RH  100%=      5-min Rain = 0
KMUS 080030Z 01006KT 00/M00 A3044 RMK A01 T00011001  RH  100%=      5-min Rain = 0
KMUS 080035Z 02005KT 00/M00 A3044 RMK A01 T00011001  RH  100%=      5-min Rain = 0
KMUS 080040Z 03004KT 00/M00 A3044 RMK A01 T00011001  RH  100%=      5-min Rain = 0
KMUS 080045Z 03004KT 00/M00 A3045 RMK A01 T00011001  RH  100%=      5-min Rain = 0
KMUS 080050Z 02003KT 00/M00 A3045 RMK A01 T00011001  RH  100%=      5-min Rain = 0
KMUS 080055Z 03003KT 00/M00 A3045 RMK A01 T00011001  RH  100%=      5-min Rain = 0
KMUS 080100Z 04004KT 00/00 A3045 RMK A01 T000100-0  RH  100%=      5-min Rain = 0
KMUS 080105Z 04004KT 00/00 A3045 RMK A01 T00020000  RH  100%=      5-min Rain = 0
KMUS 080110Z 03005KT 00/00 A3044 RMK A01 T00020001  RH  100%=      5-min Rain = 0
KMUS 080115Z 02006KT 00/00 A3044 RMK A01 T00030001  RH  100%=      5-min Rain = 0
KMUS 080120Z 03005KT 00/00 A3044 RMK A01 T00030001  RH  100%=      5-min Rain = 0
KMUS 080125Z 03005KT 00/00 A3044 RMK A01 T00020001  RH  100%=      5-min Rain = 0
KMUS 080130Z 02004KT 00/00 A3045 RMK A01 T00030001  RH  100%=      5-min Rain = 0
KMUS 080135Z 02004KT 00/00 A3045 RMK A01 T00030001  RH  100%=      5-min Rain = 0
KMUS 080140Z 03004KT 00/00 A3045 RMK A01 T00030002  RH  100%=      5-min Rain = 0
KMUS 080145Z 04005KT 00/00 A3045 RMK A01 T00030002  RH  100%=      5-min Rain = 0
KMUS 080150Z 05006KT 00/00 A3044 RMK A01 T00030001  RH  100%=      5-min Rain = 0
KMUS 080155Z 04005KT 00/00 A3045 RMK A01 T00030002  RH  100%=      5-min Rain = 0
KMUS 080200Z 05004KT 00/00 A3045 RMK A01 T00040002  RH  100%=      5-min Rain = 0
KMUS 080205Z 05004KT 00/00 A3045 RMK A01 T00040003  RH  100%=      5-min Rain = 0
KMUS 080210Z 04003KT 00/00 A3045 RMK A01 T00040002  RH  100%=      5-min Rain = 0
KMUS 080215Z 05003KT 00/00 A3045 RMK A01 T00040002  RH  100%=      5-min Rain = 0
KMUS 080220Z 04003KT 00/00 A3045 RMK A01 T00040002  RH  100%=      5-min Rain = 0
KMUS 080225Z 03004KT 01/00 A3045 RMK A01 T00050003  RH  100%=      5-min Rain = 0
KMUS 080230Z 03003KT 00/00 A3045 RMK A01 T00040003  RH  100%=      5-min Rain = 0
KMUS 080235Z 04004KT 00/00 A3045 RMK A01 T00040003  RH  100%=      5-min Rain = 0
KMUS 080240Z 04005KT 00/00 A3046 RMK A01 T00040003  RH  100%=      5-min Rain = 0
KMUS 080245Z 04004KT 00/00 A3046 RMK A01 T00040002  RH  100%=      5-min Rain = 0
KMUS 080250Z 05004KT 00/00 A3046 RMK A01 T00040003  RH  100%=      5-min Rain = 0
KMUS 080255Z 03005KT 01/00 A3046 RMK A01 T00050003  RH  100%=      5-min Rain = 0
KMUS 080300Z 02006KT 01/00 A3045 RMK A01 T00050003  RH  100%=      5-min Rain = 0
KMUS 080305Z 02005KT 00/00 A3046 RMK A01 T00040003  RH  100%=      5-min Rain = 0.01
KMUS 080310Z 03005KT 00/00 A3046 RMK A01 T00040003  RH  100%=      5-min Rain = 0
KMUS 080315Z 03005KT 00/00 A3046 RMK A01 T00040003  RH  100%=      5-min Rain = 0
KMUS 080320Z 03005KT 00/00 A3046 RMK A01 T00040003  RH  100%=      5-min Rain = 0
KMUS 080325Z 05004KT 00/00 A3046 RMK A01 T00040003  RH  100%=      5-min Rain = 0
KMUS 080330Z 04004KT 01/00 A3046 RMK A01 T00050003  RH  100%=      5-min Rain = 0
KMUS 080335Z 04004KT 01/00 A3046 RMK A01 T00050003  RH  100%=      5-min Rain = 0
KMUS 080340Z 04004KT 01/00 A3046 RMK A01 T00050003  RH  100%=      5-min Rain = 0
KMUS 080345Z 03005KT 01/00 A3046 RMK A01 T00050004  RH  100%=      5-min Rain = 0
KMUS 080350Z 03005KT 01/00 A3046 RMK A01 T00050004  RH  100%=      5-min Rain = 0
KMUS 080355Z 04004KT 01/00 A3046 RMK A01 T00060004  RH  100%=      5-min Rain = 0
KMUS 080400Z 05004KT 01/00 A3046 RMK A01 T00060004  RH  100%=      5-min Rain = 0
KMUS 080405Z 05005KT 01/00 A3046 RMK A01 T00060004  RH  100%=      5-min Rain = 0
KMUS 080410Z 05005KT 01/00 A3046 RMK A01 T00050003  RH  100%=      5-min Rain = 0
KMUS 080415Z 05005KT 01/00 A3046 RMK A01 T00050003  RH  100%=      5-min Rain = 0
KMUS 080420Z 06004KT 01/00 A3046 RMK A01 T00050003  RH  100%=      5-min Rain = 0
KMUS 080425Z 06005KT 01/00 A3046 RMK A01 T00050003  RH  100%=      5-min Rain = 0
KMUS 080430Z 06005KT 01/00 A3046 RMK A01 T00050003  RH  100%=      5-min Rain = 0
KMUS 080435Z 05005KT 01/00 A3047 RMK A01 T00050003  RH  100%=      5-min Rain = 0
KMUS 080440Z 05004KT 00/00 A3047 RMK A01 T00040002  RH  100%=      5-min Rain = 0
KMUS 080445Z 04004KT 00/00 A3047 RMK A01 T00040003  RH  100%=      5-min Rain = 0.01
KMUS 080450Z 03004KT 01/00 A3047 RMK A01 T00050003  RH  100%=      5-min Rain = 0
KMUS 080455Z 03003KT 00/00 A3047 RMK A01 T00040003  RH  100%=      5-min Rain = 0
KMUS 080500Z 04004KT 00/00 A3047 RMK A01 T00040003  RH  100%=      5-min Rain = 0
KMUS 080505Z 04004KT 00/00 A3047 RMK A01 T00040002  RH  100%=      5-min Rain = 0
KMUS 080510Z 04004KT 00/00 A3046 RMK A01 T00040002  RH  100%=      5-min Rain = 0
KMUS 080515Z 04004KT 00/00 A3046 RMK A01 T00040002  RH  100%=      5-min Rain = 0
KMUS 080520Z 03004KT 00/00 A3046 RMK A01 T00030002  RH  100%=      5-min Rain = 0
KMUS 080525Z 03004KT 00/00 A3046 RMK A01 T00040002  RH  100%=      5-min Rain = 0
KMUS 080530Z 02003KT 00/00 A3046 RMK A01 T00040002  RH  100%=      5-min Rain = 0
KMUS 080535Z 02003KT 00/00 A3046 RMK A01 T00040002  RH  100%=      5-min Rain = 0
KMUS 080540Z 04003KT 00/00 A3046 RMK A01 T00040002  RH  100%=      5-min Rain = 0
KMUS 080545Z 03003KT 01/00 A3046 RMK A01 T00050003  RH  100%=      5-min Rain = 0
KMUS 080550Z 04004KT 00/00 A3046 RMK A01 T00040003  RH  100%=      5-min Rain = 0
KMUS 080555Z 05003KT 00/00 A3046 RMK A01 T00040002  RH  100%=      5-min Rain = 0

Page generated in 0.0092 seconds.